createdAt,value
2023-03-05T00:00:49.688Z,75.60
2023-03-05T00:02:21.552Z,75.90
2023-03-05T00:03:57.306Z,75.70
2023-03-05T00:05:29.475Z,74.50
2023-03-05T00:07:01.189Z,75.10
2023-03-05T00:08:33.721Z,75.90
2023-03-05T00:10:09.271Z,74.60
2023-03-05T00:11:41.186Z,75.30
2023-03-05T00:13:12.943Z,76.80
2023-03-05T00:14:44.672Z,77.70
2023-03-05T00:16:16.608Z,78.30
2023-03-05T00:17:48.336Z,76.90
2023-03-05T00:19:20.030Z,78.60
2023-03-05T00:20:51.713Z,79.00
2023-03-05T00:22:23.406Z,78.30
2023-03-05T00:23:55.961Z,79.20
2023-03-05T00:25:27.749Z,78.20
2023-03-05T00:26:59.389Z,79.20
2023-03-05T00:28:31.033Z,79.20
2023-03-05T00:30:02.762Z,79.40
2023-03-05T00:31:37.206Z,79.40
2023-03-05T00:33:12.502Z,79.20
2023-03-05T00:34:44.316Z,79.20
2023-03-05T00:36:16.172Z,79.50
2023-03-05T00:37:48.080Z,79.60
2023-03-05T00:39:21.153Z,79.70
2023-03-05T00:40:52.818Z,79.90
2023-03-05T00:42:24.639Z,79.90
2023-03-05T00:43:56.454Z,80.10
2023-03-05T00:45:28.205Z,80.30
2023-03-05T00:46:59.937Z,80.20
2023-03-05T00:48:31.640Z,80.20
2023-03-05T00:50:04.695Z,80.20
2023-03-05T00:51:37.580Z,79.90
2023-03-05T00:53:09.285Z,78.80
2023-03-05T00:54:41.062Z,79.00
2023-03-05T00:56:12.777Z,79.70
2023-03-05T00:57:44.665Z,79.40
2023-03-05T00:59:16.550Z,79.20
2023-03-05T01:00:50.517Z,79.30
2023-03-05T01:02:22.370Z,79.70
2023-03-05T01:09:40.450Z,78.10
2023-03-05T01:11:12.641Z,78.90
2023-03-05T01:12:44.394Z,77.80
2023-03-05T07:24:12.452Z,83.00
2023-03-05T07:25:44.274Z,82.90
2023-03-05T07:27:16.003Z,83.00
2023-03-05T07:28:48.202Z,83.30
2023-03-05T08:57:44.006Z,82.50
2023-03-05T08:59:16.326Z,81.80
2023-03-05T09:00:48.065Z,82.20
2023-03-05T09:02:19.739Z,81.60
2023-03-05T09:03:51.651Z,81.40
2023-03-05T09:05:23.357Z,81.80
2023-03-05T09:06:55.317Z,81.50
2023-03-05T09:08:27.353Z,81.50
2023-03-05T09:09:59.088Z,82.00
2023-03-05T09:17:44.735Z,82.00
2023-03-05T09:19:16.474Z,81.70
2023-03-05T09:20:48.203Z,81.90
2023-03-05T09:22:19.980Z,81.90
2023-03-05T09:23:52.133Z,81.70
2023-03-05T09:25:23.869Z,81.80
2023-03-05T09:30:01.171Z,81.70
2023-03-05T09:31:33.140Z,81.50
2023-03-05T09:33:05.312Z,81.60
2023-03-05T09:34:37.422Z,81.80
2023-03-05T09:36:24.639Z,81.80
2023-03-05T09:37:56.496Z,81.90
2023-03-05T09:39:28.196Z,82.10
2023-03-05T09:41:07.821Z,82.30
2023-03-05T09:42:54.405Z,82.30
2023-03-05T09:44:35.480Z,82.50
2023-03-05T09:46:29.101Z,82.40
2023-03-05T09:48:33.940Z,82.40
2023-03-05T09:50:33.187Z,82.40
2023-03-05T09:52:16.493Z,82.50
2023-03-05T09:53:56.218Z,83.00
2023-03-05T09:55:40.300Z,83.10
2023-03-05T09:57:28.777Z,83.10
2023-03-05T09:59:21.761Z,83.40
2023-03-05T10:01:00.429Z,83.60
2023-03-05T10:02:36.622Z,83.50
2023-03-05T10:04:40.366Z,83.50
2023-03-05T10:06:20.530Z,83.50
2023-03-05T10:07:57.518Z,83.60
2023-03-05T10:09:38.032Z,84.00
2023-03-05T10:11:33.066Z,83.70
2023-03-05T10:13:16.385Z,83.70
2023-03-05T10:14:49.265Z,83.50
2023-03-05T10:17:02.758Z,83.50
2023-03-05T10:18:57.483Z,83.50
2023-03-05T10:20:51.149Z,83.50
2023-03-05T10:22:28.169Z,83.40
2023-03-05T10:24:35.903Z,83.50
2023-03-05T10:26:16.211Z,83.50
2023-03-05T10:27:53.798Z,83.40
2023-03-05T10:29:28.934Z,83.20
2023-03-05T10:31:42.320Z,83.20
2023-03-05T10:34:05.266Z,83.80
2023-03-05T10:35:51.750Z,84.00
2023-03-05T10:37:47.137Z,83.80
2023-03-05T10:39:37.527Z,83.70
2023-03-05T10:41:28.405Z,84.10
2023-03-05T10:43:31.801Z,84.00
2023-03-05T10:45:22.529Z,84.00
2023-03-05T10:46:58.020Z,84.10
2023-03-05T10:48:49.357Z,84.30
2023-03-05T10:50:25.463Z,84.20
2023-03-05T10:52:18.568Z,84.10
2023-03-05T10:54:01.642Z,84.00
2023-03-05T10:55:33.485Z,84.90
2023-03-05T10:57:20.523Z,85.20
2023-03-05T10:58:52.809Z,85.30
2023-03-05T11:00:27.833Z,85.60
2023-03-05T11:02:08.514Z,85.60
2023-03-05T11:03:58.266Z,85.80
2023-03-05T11:05:38.943Z,85.60
2023-03-05T11:07:17.015Z,85.60
2023-03-05T11:08:48.784Z,85.20
2023-03-05T11:10:21.446Z,85.20
2023-03-05T11:12:14.242Z,84.90
2023-03-05T11:13:53.628Z,85.20
2023-03-05T11:15:29.247Z,84.70
2023-03-05T11:17:03.798Z,84.50
2023-03-05T11:18:35.694Z,84.40
2023-03-05T11:20:31.707Z,84.30
2023-03-05T11:22:07.946Z,83.90
2023-03-05T11:23:39.676Z,83.90
2023-03-05T11:25:12.358Z,83.80
2023-03-05T11:26:51.087Z,83.80
2023-03-05T11:28:32.955Z,83.80
2023-03-05T11:30:21.394Z,83.70
2023-03-05T11:35:39.973Z,83.60
2023-03-05T11:37:30.467Z,83.50
2023-03-05T11:39:08.003Z,83.40
2023-03-05T11:40:39.828Z,83.40
2023-03-05T11:42:24.620Z,83.40
2023-03-05T11:43:58.897Z,83.40
2023-03-05T11:45:32.746Z,83.50
2023-03-05T11:47:25.594Z,83.40
2023-03-05T11:48:58.609Z,83.40
2023-03-05T11:50:32.327Z,83.10
2023-03-05T11:52:18.165Z,83.20
2023-03-05T11:53:55.517Z,83.20
2023-03-05T11:55:46.817Z,83.20
2023-03-05T11:57:21.250Z,83.00
2023-03-05T11:59:18.114Z,83.10
2023-03-05T12:00:50.196Z,83.00
2023-03-05T12:02:27.626Z,83.00
2023-03-05T12:04:00.420Z,83.00
2023-03-05T12:05:33.520Z,82.90
2023-03-05T12:07:05.526Z,82.90
2023-03-05T12:08:41.352Z,82.90
2023-03-05T12:10:22.069Z,82.80
2023-03-05T12:12:41.509Z,82.80
2023-03-05T12:14:30.407Z,82.80
2023-03-05T12:16:04.755Z,82.70
2023-03-05T12:18:20.135Z,82.70
2023-03-05T12:20:22.448Z,82.70
2023-03-05T12:21:55.003Z,82.80
2023-03-05T12:23:29.384Z,82.60
2023-03-05T12:25:26.699Z,82.60
2023-03-05T12:27:03.660Z,82.50
2023-03-05T12:28:35.332Z,82.70
2023-03-05T12:30:49.778Z,82.80
2023-03-05T12:32:33.797Z,83.00
2023-03-05T12:34:37.620Z,83.30
2023-03-05T12:36:21.605Z,83.50
2023-03-05T12:37:53.364Z,83.70
2023-03-05T12:39:40.405Z,83.70
2023-03-05T12:41:25.413Z,83.70
2023-03-05T12:43:24.339Z,83.80
2023-03-05T12:45:19.860Z,83.90
2023-03-05T12:47:15.715Z,83.90
2023-03-05T12:48:47.491Z,84.10
2023-03-05T12:50:28.339Z,84.20
2023-03-05T12:52:03.159Z,84.10
2023-03-05T12:53:34.931Z,84.20
2023-03-05T12:55:28.271Z,84.10
2023-03-05T12:57:29.497Z,84.10
2023-03-05T12:59:04.170Z,83.90
2023-03-05T13:00:49.479Z,83.60
2023-03-05T13:02:26.291Z,83.30
2023-03-05T13:04:01.988Z,83.20
2023-03-05T13:05:37.289Z,82.90
2023-03-05T13:07:16.252Z,82.70
2023-03-05T13:09:07.416Z,82.60
2023-03-05T13:10:40.280Z,82.50
2023-03-05T13:12:14.051Z,82.50
2023-03-05T13:13:47.838Z,82.40
2023-03-05T13:15:20.151Z,82.30
2023-03-05T13:16:51.913Z,82.10
2023-03-05T13:20:46.080Z,81.40
2023-03-05T13:22:17.795Z,81.20
2023-03-05T13:24:01.133Z,81.30
2023-03-05T13:25:32.862Z,81.30
2023-03-05T13:27:29.930Z,81.40
2023-03-05T13:29:12.084Z,81.50
2023-03-05T13:31:11.694Z,81.50
2023-03-05T13:32:43.571Z,81.30
2023-03-05T13:34:48.265Z,81.40
2023-03-05T13:36:25.122Z,81.50
2023-03-05T13:37:57.862Z,81.50
2023-03-05T13:39:42.941Z,81.70
2023-03-05T13:41:14.850Z,81.70
2023-03-05T13:42:46.635Z,81.70
2023-03-05T13:44:21.968Z,81.60
2023-03-05T13:45:56.556Z,81.40
2023-03-05T13:47:31.955Z,81.40
2023-03-05T13:51:29.427Z,81.50
2023-03-05T13:53:19.070Z,81.40
2023-03-05T13:54:50.776Z,81.40
2023-03-05T13:56:22.596Z,81.40
2023-03-05T14:00:38.834Z,81.60
2023-03-05T14:02:19.766Z,81.60
2023-03-05T14:03:53.968Z,81.60
2023-03-05T14:05:26.090Z,81.70
2023-03-05T14:06:59.653Z,81.70
2023-03-05T14:08:31.533Z,81.80
2023-03-05T14:10:05.512Z,81.80
2023-03-05T14:11:37.299Z,81.90
2023-03-05T14:13:17.102Z,81.90
2023-03-05T14:14:50.156Z,81.90
2023-03-05T14:23:37.299Z,82.00
2023-03-05T14:25:29.759Z,81.60
2023-03-05T14:27:08.655Z,81.80
2023-03-05T14:28:40.527Z,81.80
2023-03-05T14:30:19.713Z,81.80
2023-03-05T14:32:17.176Z,81.90
2023-03-05T14:33:50.317Z,82.00
2023-03-05T14:35:25.205Z,82.00
2023-03-05T14:37:00.584Z,81.90
2023-03-05T14:38:34.190Z,82.10
2023-03-05T14:40:08.348Z,82.00
2023-03-05T14:44:14.049Z,82.10
2023-03-05T14:45:51.864Z,82.20
2023-03-05T14:47:26.445Z,82.10
2023-03-05T14:48:58.224Z,82.30
2023-03-05T14:50:38.233Z,82.20
2023-03-05T14:52:15.782Z,82.20
2023-03-05T14:53:50.824Z,82.30
2023-03-05T14:55:30.148Z,82.40
2023-03-05T14:57:01.946Z,82.30
2023-03-05T14:58:35.388Z,82.30
2023-03-05T15:00:22.664Z,82.40
2023-03-05T15:01:54.377Z,82.30
2023-03-05T15:03:27.823Z,82.40
2023-03-05T15:04:59.548Z,82.40
2023-03-05T15:06:36.067Z,82.40
2023-03-05T15:08:15.311Z,82.30
2023-03-05T15:15:36.194Z,82.40
2023-03-05T15:17:14.832Z,82.50
2023-03-05T15:20:57.352Z,82.60
2023-03-05T15:22:29.560Z,82.90
2023-03-05T15:24:01.260Z,82.90
2023-03-05T15:25:35.204Z,82.90
2023-03-05T15:27:06.987Z,82.80
2023-03-05T15:28:40.034Z,83.10
2023-03-05T15:30:31.890Z,83.10
2023-03-05T15:32:05.433Z,83.10
2023-03-05T15:33:37.393Z,83.20
2023-03-05T15:35:09.852Z,83.30
2023-03-05T15:36:41.526Z,83.30
2023-03-05T15:38:13.425Z,83.50
2023-03-05T15:39:45.480Z,83.80
2023-03-05T15:41:17.616Z,84.00
2023-03-05T15:42:49.760Z,84.10
2023-03-05T15:44:21.890Z,84.30
2023-03-05T15:45:53.662Z,84.20
2023-03-05T15:47:25.453Z,84.40
2023-03-05T15:48:57.220Z,84.50
2023-03-05T15:50:29.135Z,84.50
2023-03-05T15:52:00.964Z,84.50
2023-03-05T15:53:32.661Z,84.50
2023-03-05T16:05:11.492Z,84.30
2023-03-05T16:06:45.494Z,84.30
2023-03-05T16:08:17.245Z,84.10
2023-03-05T16:09:50.909Z,84.10
2023-03-05T16:11:22.872Z,84.10
2023-03-05T16:19:59.157Z,83.90
2023-03-05T16:21:31.416Z,84.10
2023-03-05T16:23:04.678Z,84.10
2023-03-05T16:24:36.473Z,84.20
2023-03-05T16:26:10.381Z,84.40
2023-03-05T16:27:42.076Z,84.40
2023-03-05T16:29:14.195Z,84.50
2023-03-05T16:30:53.319Z,84.40
2023-03-05T16:32:25.233Z,84.50
2023-03-05T16:33:57.178Z,84.40
2023-03-05T16:35:28.904Z,84.50
2023-03-05T16:37:04.187Z,84.60
2023-03-05T16:38:35.877Z,84.20
2023-03-05T16:40:09.502Z,84.30
2023-03-05T16:41:41.232Z,84.40
2023-03-05T16:43:13.080Z,84.20
2023-03-05T16:44:45.235Z,84.00
2023-03-05T16:46:17.373Z,84.30
2023-03-05T16:47:49.438Z,84.40
2023-03-05T16:49:22.538Z,84.30
2023-03-05T16:50:54.299Z,84.30
2023-03-05T16:52:26.161Z,84.30
2023-03-05T16:53:57.882Z,84.10
2023-03-05T16:55:29.572Z,84.30
2023-03-05T16:57:01.343Z,84.20
2023-03-05T16:58:34.650Z,84.00
2023-03-05T17:00:09.043Z,84.00
2023-03-05T17:01:40.846Z,83.80
2023-03-05T17:05:03.641Z,84.20
2023-03-05T17:06:35.447Z,83.80
2023-03-05T17:08:07.449Z,83.70
2023-03-05T17:09:39.409Z,83.50
2023-03-05T17:11:12.441Z,83.60
2023-03-05T17:12:44.248Z,83.40
2023-03-05T17:14:15.946Z,83.40
2023-03-05T17:15:47.630Z,83.30
2023-03-05T17:17:19.800Z,83.30
2023-03-05T17:18:51.538Z,83.40
2023-03-05T17:20:23.300Z,83.50
2023-03-05T17:21:54.989Z,83.80
2023-03-05T17:23:26.809Z,83.60
2023-03-05T17:24:58.592Z,83.70
2023-03-05T17:26:32.709Z,83.30
2023-03-05T17:28:04.669Z,83.50
2023-03-05T17:29:36.399Z,83.30
2023-03-05T17:31:08.498Z,82.20
2023-03-05T17:32:41.379Z,82.50
2023-03-05T17:34:13.205Z,83.00
2023-03-05T17:35:47.962Z,83.20
2023-03-05T17:37:19.719Z,83.10
2023-03-05T17:38:52.871Z,83.10
2023-03-05T17:40:25.277Z,83.20
2023-03-05T17:41:56.934Z,83.30
2023-03-05T17:43:28.681Z,83.20
2023-03-05T17:45:00.415Z,83.20
2023-03-05T17:46:32.247Z,83.20
2023-03-05T17:48:04.137Z,83.10
2023-03-05T17:49:35.852Z,83.30
2023-03-05T17:51:09.886Z,83.20
2023-03-05T17:52:41.873Z,83.30
2023-03-05T17:54:13.649Z,83.10
2023-03-05T17:55:45.348Z,83.00
2023-03-05T17:57:17.100Z,82.90
2023-03-05T17:58:49.539Z,81.90
2023-03-05T18:00:27.237Z,81.80
2023-03-05T18:01:59.036Z,81.80
2023-03-05T18:03:31.003Z,82.70
2023-03-05T18:05:04.161Z,82.80
2023-03-05T18:06:36.048Z,82.50
2023-03-05T18:08:07.950Z,81.00
2023-03-05T18:09:39.712Z,81.00
2023-03-05T18:11:11.512Z,80.10
2023-03-05T18:12:43.422Z,80.50
2023-03-05T18:14:16.924Z,79.90
2023-03-05T18:15:49.060Z,79.50
2023-03-05T18:17:22.651Z,79.30
2023-03-05T18:18:54.599Z,79.10
2023-03-05T18:20:32.053Z,79.00
2023-03-05T18:22:03.807Z,78.80
2023-03-05T18:23:36.344Z,78.90
2023-03-05T18:25:10.300Z,78.70
2023-03-05T18:26:41.981Z,78.70
2023-03-05T18:28:15.155Z,78.70
2023-03-05T18:29:46.871Z,78.60
2023-03-05T18:31:18.931Z,78.60
2023-03-05T18:32:51.276Z,78.60
2023-03-05T18:34:24.877Z,78.60
2023-03-05T18:35:57.633Z,78.60
2023-03-05T18:37:30.696Z,78.70
2023-03-05T18:39:02.549Z,78.70
2023-03-05T18:40:35.923Z,78.70
2023-03-05T18:42:12.379Z,78.60
2023-03-05T18:43:44.116Z,78.70
2023-03-05T18:45:17.712Z,78.60
2023-03-05T18:46:49.489Z,78.70
2023-03-05T18:48:21.320Z,78.90
2023-03-05T18:49:53.731Z,78.80
2023-03-05T18:51:27.160Z,78.80
2023-03-05T18:52:58.968Z,78.70
2023-03-05T18:54:32.431Z,78.60
2023-03-05T18:56:04.450Z,78.80
2023-03-05T18:57:36.194Z,78.70
2023-03-05T18:59:07.949Z,78.60
2023-03-05T19:00:41.047Z,78.60
2023-03-05T19:02:17.018Z,78.60
2023-03-05T19:03:51.774Z,78.60
2023-03-05T19:05:27.053Z,78.70
2023-03-05T19:06:58.855Z,78.70
2023-03-05T19:08:30.561Z,78.60
2023-03-05T19:10:07.128Z,78.70
2023-03-05T19:11:38.890Z,78.70
2023-03-05T19:13:34.882Z,78.70
2023-03-05T19:15:07.281Z,78.70
2023-03-05T19:16:43.829Z,78.70
2023-03-05T19:18:20.414Z,78.70
2023-03-05T19:19:53.441Z,78.80
2023-03-05T19:21:25.236Z,78.80
2023-03-05T19:22:56.982Z,78.90
2023-03-05T19:24:30.406Z,78.90
2023-03-05T19:26:03.043Z,79.00
2023-03-05T19:27:35.650Z,79.10
2023-03-05T19:29:08.482Z,79.30
2023-03-05T19:30:40.233Z,79.30
2023-03-05T19:32:14.471Z,79.30
2023-03-05T19:33:46.213Z,79.30
2023-03-05T19:35:18.560Z,79.50
2023-03-05T19:36:50.342Z,79.50
2023-03-05T19:38:22.153Z,79.60
2023-03-05T19:39:54.054Z,79.70
2023-03-05T19:41:27.558Z,79.70
2023-03-05T19:42:59.353Z,79.80
2023-03-05T19:44:31.651Z,79.80
2023-03-05T19:46:05.360Z,79.90
2023-03-05T19:47:37.315Z,80.00
2023-03-05T19:49:09.399Z,80.00
2023-03-05T19:50:41.126Z,80.10
2023-03-05T19:52:13.942Z,80.10
2023-03-05T19:53:46.399Z,80.10
2023-03-05T19:55:18.321Z,79.90
2023-03-05T19:56:53.524Z,79.80
2023-03-05T19:58:25.347Z,79.70
2023-03-05T19:59:57.098Z,79.60
2023-03-05T20:01:28.958Z,79.50
2023-03-05T20:03:00.680Z,79.40
2023-03-05T20:04:32.383Z,79.30
2023-03-05T20:06:05.982Z,79.20
2023-03-05T20:07:37.808Z,79.10
2023-03-05T20:09:09.973Z,78.90
2023-03-05T20:10:41.666Z,78.80
2023-03-05T20:12:13.367Z,78.90
2023-03-05T20:13:45.349Z,78.90
2023-03-05T20:15:18.243Z,78.90
2023-03-05T20:16:49.952Z,78.80
2023-03-05T20:18:21.658Z,78.80
2023-03-05T20:19:55.356Z,78.90
2023-03-05T20:21:30.782Z,78.90
2023-03-05T20:23:02.624Z,79.00
2023-03-05T20:24:35.250Z,79.10
2023-03-05T20:26:07.010Z,79.20
2023-03-05T20:27:39.691Z,79.30
2023-03-05T20:29:12.273Z,79.50
2023-03-05T20:30:44.044Z,79.60
2023-03-05T20:32:15.864Z,79.70
2023-03-05T20:33:47.703Z,79.80
2023-03-05T20:35:19.562Z,80.00
2023-03-05T20:36:51.299Z,80.20
2023-03-05T20:38:30.314Z,80.10
2023-03-05T20:40:02.063Z,80.20
2023-03-05T20:41:35.733Z,80.40
2023-03-05T20:43:07.504Z,80.60
2023-03-05T20:44:39.207Z,80.60
2023-03-05T20:46:24.033Z,80.60
2023-03-05T20:47:55.780Z,80.80
2023-03-05T20:49:27.486Z,80.80
2023-03-05T20:51:09.840Z,80.90
2023-03-05T20:52:41.593Z,80.90
2023-03-05T20:54:15.299Z,81.10
2023-03-05T20:55:47.162Z,81.20
2023-03-05T20:57:18.854Z,81.30
2023-03-05T20:58:50.930Z,81.30
2023-03-05T21:00:23.710Z,81.20
2023-03-05T21:01:55.388Z,81.40
2023-03-05T21:03:27.169Z,81.40
2023-03-05T21:04:58.875Z,81.50
2023-03-05T21:06:32.276Z,81.70
2023-03-05T21:08:05.023Z,81.70
2023-03-05T21:09:36.758Z,81.90
2023-03-05T21:11:09.551Z,81.90
2023-03-05T21:12:41.273Z,81.90
2023-03-05T21:14:12.997Z,81.90
2023-03-05T21:15:44.721Z,82.00
2023-03-05T21:17:17.946Z,82.10
2023-03-05T21:18:51.008Z,82.30
2023-03-05T21:20:28.336Z,82.30
2023-03-05T21:22:00.266Z,82.30
2023-03-05T21:23:32.795Z,82.40
2023-03-05T21:25:31.956Z,82.40
2023-03-05T21:27:03.690Z,82.50
2023-03-05T21:28:35.774Z,82.50
2023-03-05T21:30:08.650Z,82.60
2023-03-05T21:31:40.464Z,82.70
2023-03-05T21:33:27.257Z,82.70
2023-03-05T21:35:00.421Z,82.90
2023-03-05T21:36:32.236Z,82.90
2023-03-05T21:38:06.097Z,82.90
2023-03-05T21:39:37.898Z,82.90
2023-03-05T21:41:10.333Z,82.80
2023-03-05T21:42:42.422Z,82.80
2023-03-05T21:44:17.504Z,82.80
2023-03-05T21:45:52.568Z,82.90
2023-03-05T21:47:24.304Z,82.90
2023-03-05T21:48:55.989Z,82.90
2023-03-05T21:50:27.733Z,82.90
2023-03-05T21:52:12.189Z,82.90
2023-03-05T21:53:43.982Z,83.00
2023-03-05T21:55:19.066Z,83.00
2023-03-05T21:56:50.746Z,83.10
2023-03-05T21:58:22.510Z,83.10
2023-03-05T21:59:54.275Z,83.10
2023-03-05T22:01:26.138Z,83.10
2023-03-05T22:02:57.889Z,83.10
2023-03-05T22:04:29.605Z,83.10
2023-03-05T22:06:01.357Z,83.20
2023-03-05T22:07:33.267Z,83.20
2023-03-05T22:09:05.382Z,83.20
2023-03-05T22:10:37.118Z,83.10
2023-03-05T22:12:45.655Z,83.20
2023-03-05T22:14:33.959Z,83.20
2023-03-05T22:16:06.694Z,83.30
2023-03-05T22:17:38.391Z,83.30
2023-03-05T22:19:10.718Z,83.20
2023-03-05T22:20:42.970Z,83.20
2023-03-05T22:22:14.625Z,83.30
2023-03-05T22:23:46.894Z,83.20
2023-03-05T22:25:18.784Z,83.20
2023-03-05T22:26:50.951Z,83.30
2023-03-05T22:28:22.878Z,83.40
2023-03-05T22:29:54.564Z,83.40
2023-03-05T22:31:27.653Z,83.30
2023-03-05T22:33:01.195Z,83.40
2023-03-05T22:34:37.431Z,83.30
2023-03-05T22:36:10.931Z,83.40
2023-03-05T22:37:43.686Z,83.50
2023-03-05T22:39:15.406Z,83.40
2023-03-05T22:40:48.891Z,83.50
2023-03-05T22:42:20.659Z,83.50
2023-03-05T22:43:52.440Z,83.40
2023-03-05T22:45:24.130Z,83.40
2023-03-05T22:46:55.903Z,83.50
2023-03-05T22:48:27.567Z,83.40
2023-03-05T22:50:00.612Z,83.40
2023-03-05T22:51:32.994Z,83.40
2023-03-05T22:53:04.821Z,83.40
2023-03-05T22:54:36.774Z,83.40
2023-03-05T22:56:14.220Z,83.50
2023-03-05T22:57:45.972Z,83.40
2023-03-05T22:59:17.651Z,83.50
2023-03-05T23:00:49.323Z,83.50
2023-03-05T23:02:21.036Z,83.50
2023-03-05T23:04:54.747Z,83.50
2023-03-05T23:06:26.502Z,83.60
2023-03-05T23:07:58.280Z,83.60
2023-03-05T23:09:29.996Z,83.50
2023-03-05T23:11:08.486Z,83.50
2023-03-05T23:12:46.198Z,83.60
2023-03-05T23:14:17.954Z,83.60
2023-03-05T23:15:49.705Z,83.70
2023-03-05T23:17:21.476Z,83.70
2023-03-05T23:18:54.317Z,83.70
2023-03-05T23:20:29.413Z,83.70
2023-03-05T23:22:01.101Z,83.80
2023-03-05T23:23:32.811Z,83.70
2023-03-05T23:25:05.140Z,83.70
2023-03-05T23:26:36.879Z,83.80
2023-03-05T23:28:08.634Z,83.70
2023-03-05T23:30:19.387Z,83.70
2023-03-05T23:31:54.608Z,83.80
2023-03-05T23:33:26.359Z,83.80
2023-03-05T23:34:58.124Z,83.70
2023-03-05T23:36:29.859Z,83.80
2023-03-05T23:38:04.240Z,83.90
2023-03-05T23:39:35.947Z,83.90
2023-03-05T23:41:09.348Z,83.80
2023-03-05T23:42:41.826Z,83.80
2023-03-05T23:44:13.534Z,83.80
2023-03-05T23:45:50.276Z,83.80
2023-03-05T23:47:22.046Z,83.80
2023-03-05T23:48:53.789Z,83.90
2023-03-05T23:50:31.241Z,83.80
2023-03-05T23:52:03.022Z,83.80
2023-03-05T23:53:35.038Z,83.70
2023-03-05T23:55:07.189Z,83.70
2023-03-05T23:56:38.862Z,83.60
2023-03-05T23:58:11.658Z,83.60
2023-03-05T23:59:43.404Z,83.60
